Islamorada, FL (33036)

7:41 PM EST on February 05, 2016 (GMT -0500)
APRSWXNET | | Change Station
CLOSE
Current Station
Personal Weather Station
Location: Islamorada, FL
Elevation: 15 ft
Nearby Weather Stations

Elev 15 ft 24.92 °N, 80.64 °W | Updated 15 days ago

Cloudy
Cloudy
66 °F
Feels Like 66 °F
N
13
Wind Variable Wind from NNE
Gusts mph

Today
High -- | Low -- °F
--% Chance of Precip.
Yesterday
High -- | Low -- °F
Precip. -- in
Pressure 30.14 in
Visibility 10.0 miles
Clouds Mostly Cloudy 2800 ft
Dew Point 60 °F
Humidity 81%
Rainfall in
Snow Depth Not available.
7:03 AM 6:10 PM
Waning Crescent, 8% visible
SPECI KHST 060008Z AUTO 35008KT 10SM BKN028 19/12 A3014 RMK AO2 BKN V SCT
Pressure 30.14 in
Visibility 10.0 miles
Clouds Mostly Cloudy 2800 ft
Dew Point 60 °F
Humidity 81%
Rainfall in
Snow Depth Not available.
7:03 AM 6:10 PM
Waning Crescent, 8% visible
SPECI KHST 060008Z AUTO 35008KT 10SM BKN028 19/12 A3014 RMK AO2 BKN V SCT

10-Day Weather Forecast

Almanac

Astronomy

Feb. 05, 2016 Rise Set
Actual Time
Civil Twilight
Nautical Twilight
Astronomical Twilight
Moon
Length of Visible Light
Length of Day
Tomorrow will be .
, % of the Moon is Illuminated

Today's Extremes

State Highs State Lows

Community

WunderPhotos

Upload Photos

1,890,900 photos uploaded!

WunderBlog® & News

Nearby

Air Quality

  Air Quality AQ Index Pollutant
Not available.

Snow Depth

Station Depth Elevation

Earthquake Activity

City Distance Mag. Time & Date
Minimum magnitude displayed is 2.5.

Coastal Water Temperatures

Place Temperature

Stations

Nearby Weather Stations

Station Location Temp. Windchill Dew Point Humidity Wind Precip. Elev Updated Type
                   

Watches & Warnings

There are currently no watches in effect.